Time,TemperatureF,DewpointF,PressureIn,WindDirection,WindDirectionDegrees,WindSpeedMPH,WindSpeedGustMPH,Humidity,HourlyPrecipIn,Conditions,Clouds,dailyrainin,SoftwareType,DateUTC
2013-03-25 00:00:00,28.0,19.8,30.21,North,5,0.0,2.0,71,0.00,,---,0.00,VWS V14.01,2013-03-25 05:00:00,
2013-03-25 00:04:00,27.9,19.4,30.21,North,5,0.0,0.0,70,0.00,,---,0.00,VWS V14.01,2013-03-25 05:04:00,
2013-03-25 00:07:00,27.7,19.2,30.22,North,5,0.0,0.0,70,0.00,,---,0.00,VWS V14.01,2013-03-25 05:07:00,
2013-03-25 00:13:00,27.2,18.7,30.22,North,5,0.0,0.0,70,0.00,,---,0.00,VWS V14.01,2013-03-25 05:13:00,
2013-03-25 00:16:00,26.9,18.8,30.22,North,5,0.0,0.0,71,0.00,,---,0.00,VWS V14.01,2013-03-25 05:16:00,
2013-03-25 00:19:00,26.6,18.5,30.22,North,5,0.0,0.0,71,0.00,,---,0.00,VWS V14.01,2013-03-25 05:19:00,
2013-03-25 00:22:00,26.3,18.5,30.22,North,5,0.0,0.0,72,0.00,,---,0.00,VWS V14.01,2013-03-25 05:22:00,
2013-03-25 00:25:00,26.1,18.6,30.22,North,5,0.0,0.0,73,0.00,,---,0.00,VWS V14.01,2013-03-25 05:25:00,
2013-03-25 00:28:00,26.0,18.5,30.23,North,5,0.0,0.0,73,0.00,,---,0.00,VWS V14.01,2013-03-25 05:28:00,
2013-03-25 00:34:00,25.6,18.5,30.23,North,5,0.0,0.0,74,0.00,,---,0.00,VWS V14.01,2013-03-25 05:34:00,
2013-03-25 00:37:00,25.4,18.3,30.23,North,5,0.0,0.0,74,0.00,,---,0.00,VWS V14.01,2013-03-25 05:37:00,
2013-03-25 00:40:00,25.3,18.2,30.23,North,5,0.0,0.0,74,0.00,,---,0.00,VWS V14.01,2013-03-25 05:40:00,
2013-03-25 00:43:00,25.1,18.3,30.23,North,5,0.0,0.0,75,0.00,,---,0.00,VWS V14.01,2013-03-25 05:43:00,
2013-03-25 00:46:00,24.9,18.4,30.23,North,5,0.0,0.0,76,0.00,,---,0.00,VWS V14.01,2013-03-25 05:46:00,
2013-03-25 00:49:00,24.8,18.6,30.24,North,5,0.0,0.0,77,0.00,,---,0.00,VWS V14.01,2013-03-25 05:49:00,
2013-03-25 00:52:00,24.6,18.4,30.24,North,5,0.0,0.0,77,0.00,,---,0.00,VWS V14.01,2013-03-25 05:52:00,
2013-03-25 00:55:00,24.5,18.3,30.24,North,5,0.0,0.0,77,0.00,,---,0.00,VWS V14.01,2013-03-25 05:55:00,
2013-03-25 00:58:00,24.4,18.5,30.24,North,5,0.0,0.0,78,0.00,,---,0.00,VWS V14.01,2013-03-25 05:58:00,
2013-03-25 01:01:00,24.3,18.4,30.24,North,5,0.0,0.0,78,0.00,,---,0.00,VWS V14.01,2013-03-25 06:01:00,
2013-03-25 01:07:00,24.1,18.5,30.25,North,5,0.0,0.0,79,0.00,,---,0.00,VWS V14.01,2013-03-25 06:07:00,
2013-03-25 01:10:00,24.1,18.2,30.25,North,5,0.0,0.0,78,0.00,,---,0.00,VWS V14.01,2013-03-25 06:10:00,
2013-03-25 01:13:00,24.0,18.1,30.25,North,5,0.0,0.0,78,0.00,,---,0.00,VWS V14.01,2013-03-25 06:13:00,
2013-03-25 01:16:00,23.8,17.7,30.24,North,5,0.0,0.0,77,0.00,,---,0.00,VWS V14.01,2013-03-25 06:16:00,
2013-03-25 01:22:00,23.9,18.4,30.25,North,5,0.0,0.0,79,0.00,,---,0.00,VWS V14.01,2013-03-25 06:22:00,
2013-03-25 01:25:00,24.0,18.5,30.25,North,5,0.0,0.0,79,0.00,,---,0.00,VWS V14.01,2013-03-25 06:25:00,
2013-03-25 01:28:00,24.3,18.7,30.25,North,5,1.0,1.0,79,0.00,,---,0.00,VWS V14.01,2013-03-25 06:28:00,
2013-03-25 01:31:00,24.8,18.9,30.25,North,5,0.0,2.0,78,0.00,,---,0.00,VWS V14.01,2013-03-25 06:31:00,
2013-03-25 01:37:00,26.5,19.7,30.25,North,5,1.0,3.0,75,0.00,,---,0.00,VWS V14.01,2013-03-25 06:37:00,
2013-03-25 01:40:00,27.2,19.7,30.25,North,5,1.0,3.0,73,0.00,,---,0.00,VWS V14.01,2013-03-25 06:40:00,
2013-03-25 01:44:00,27.8,20.0,30.25,North,5,2.0,3.0,72,0.00,,---,0.00,VWS V14.01,2013-03-25 06:44:00,
2013-03-25 01:50:00,28.4,19.9,30.26,North,5,0.0,3.0,70,0.00,,---,0.00,VWS V14.01,2013-03-25 06:50:00,
2013-03-25 01:56:00,29.0,19.8,30.26,North,5,0.0,3.0,68,0.00,,---,0.00,VWS V14.01,2013-03-25 06:56:00,
2013-03-25 01:59:00,29.2,19.6,30.26,North,5,0.0,3.0,67,0.00,,---,0.00,VWS V14.01,2013-03-25 06:59:00,
2013-03-25 02:02:00,29.0,19.1,30.26,North,5,0.0,0.0,66,0.00,,---,0.00,VWS V14.01,2013-03-25 07:02:00,
2013-03-25 02:14:00,25.9,17.5,30.27,North,5,0.0,0.0,70,0.00,,---,0.00,VWS V14.01,2013-03-25 07:14:00,
2013-03-25 02:20:00,24.8,17.4,30.27,North,5,0.0,2.0,73,0.00,,---,0.00,VWS V14.01,2013-03-25 07:20:00,
2013-03-25 02:23:00,24.4,17.3,30.27,North,360,2.0,2.0,74,0.00,,---,0.00,VWS V14.01,2013-03-25 07:23:00,
2013-03-25 02:26:00,24.3,17.5,30.28,NNW,347,0.0,3.0,75,0.00,,---,0.00,VWS V14.01,2013-03-25 07:26:00,
2013-03-25 02:32:00,24.0,17.5,30.28,NNW,347,2.0,2.0,76,0.00,,---,0.00,VWS V14.01,2013-03-25 07:32:00,
2013-03-25 02:35:00,24.1,17.6,30.28,NNW,347,1.0,2.0,76,0.00,,---,0.00,VWS V14.01,2013-03-25 07:35:00,
2013-03-25 02:41:00,24.4,17.3,30.28,NNW,347,0.0,2.0,74,0.00,,---,0.00,VWS V14.01,2013-03-25 07:41:00,
2013-03-25 02:44:00,24.3,17.5,30.28,NNW,347,0.0,2.0,75,0.00,,---,0.00,VWS V14.01,2013-03-25 07:44:00,
2013-03-25 02:47:00,24.2,17.4,30.28,NNW,347,0.0,2.0,75,0.00,,---,0.00,VWS V14.01,2013-03-25 07:47:00,
2013-03-25 02:50:00,24.2,18.0,30.28,NNW,347,0.0,2.0,77,0.00,,---,0.00,VWS V14.01,2013-03-25 07:50:00,
2013-03-25 02:53:00,24.1,18.2,30.28,NNW,347,0.0,2.0,78,0.00,,---,0.00,VWS V14.01,2013-03-25 07:53:00,
2013-03-25 02:56:00,24.0,18.5,30.28,NNW,347,0.0,2.0,79,0.00,,---,0.00,VWS V14.01,2013-03-25 07:56:00,
2013-03-25 02:59:00,24.0,18.5,30.28,NNW,347,0.0,2.0,79,0.00,,---,0.00,VWS V14.01,2013-03-25 07:59:00,
2013-03-25 03:01:00,23.9,18.0,30.28,NNW,347,0.0,2.0,78,0.00,,---,0.00,VWS V14.01,2013-03-25 08:01:00,
2013-03-25 03:05:00,23.5,17.1,30.28,NNW,347,0.0,0.0,76,0.00,,---,0.00,VWS V14.01,2013-03-25 08:05:00,
2013-03-25 03:08:00,23.2,16.8,30.28,NNW,347,0.0,0.0,76,0.00,,---,0.00,VWS V14.01,2013-03-25 08:08:00,
2013-03-25 03:11:00,23.0,16.9,30.28,NNW,347,0.0,0.0,77,0.00,,---,0.00,VWS V14.01,2013-03-25 08:11:00,
2013-03-25 03:18:00,22.8,17.6,30.29,NNW,347,1.0,2.0,80,0.00,,---,0.00,VWS V14.01,2013-03-25 08:18:00,
2013-03-25 03:21:00,22.6,16.8,30.29,NNW,347,0.0,2.0,78,0.00,,---,0.00,VWS V14.01,2013-03-25 08:21:00,
2013-03-25 03:24:00,22.3,16.5,30.28,NNW,347,0.0,2.0,78,0.00,,---,0.00,VWS V14.01,2013-03-25 08:24:00,
2013-03-25 03:27:00,22.0,16.2,30.28,NNW,347,0.0,2.0,78,0.00,,---,0.00,VWS V14.01,2013-03-25 08:27:00,
2013-03-25 03:30:00,21.6,16.1,30.28,NNW,347,0.0,2.0,79,0.00,,---,0.00,VWS V14.01,2013-03-25 08:30:00,
2013-03-25 03:33:00,21.4,16.2,30.28,NNW,347,0.0,0.0,80,0.00,,---,0.00,VWS V14.01,2013-03-25 08:33:00,
2013-03-25 03:39:00,20.8,15.6,30.28,NNW,347,0.0,0.0,80,0.00,,---,0.00,VWS V14.01,2013-03-25 08:39:00,
2013-03-25 03:42:00,20.5,15.6,30.29,NNW,347,0.0,0.0,81,0.00,,---,0.00,VWS V14.01,2013-03-25 08:42:00,
2013-03-25 03:45:00,20.4,15.8,30.29,NNW,347,0.0,0.0,82,0.00,,---,0.00,VWS V14.01,2013-03-25 08:45:00,
2013-03-25 03:48:00,20.3,15.7,30.29,NNW,347,0.0,0.0,82,0.00,,---,0.00,VWS V14.01,2013-03-25 08:48:00,
2013-03-25 03:54:00,20.4,16.4,30.28,NNW,347,0.0,0.0,84,0.00,,---,0.00,VWS V14.01,2013-03-25 08:54:00,
2013-03-25 03:57:00,20.6,16.8,30.28,NNW,347,0.0,0.0,85,0.00,,---,0.00,VWS V14.01,2013-03-25 08:57:00,
2013-03-25 04:00:00,20.7,16.9,30.28,NNW,347,0.0,0.0,85,0.00,,---,0.00,VWS V14.01,2013-03-25 09:00:00,
2013-03-25 04:03:00,20.9,17.4,30.28,NNW,347,0.0,0.0,86,0.00,,---,0.00,VWS V14.01,2013-03-25 09:03:00,
2013-03-25 04:09:00,20.7,16.6,30.28,NNW,347,0.0,0.0,84,0.00,,---,0.00,VWS V14.01,2013-03-25 09:09:00,
2013-03-25 04:15:00,20.0,15.4,30.28,NNW,347,2.0,3.0,82,0.00,,---,0.00,VWS V14.01,2013-03-25 09:15:00,
2013-03-25 04:18:00,19.4,14.8,30.29,NNW,347,0.0,3.0,82,0.00,,---,0.00,VWS V14.01,2013-03-25 09:18:00,
2013-03-25 04:21:00,19.1,14.8,30.29,NNW,347,0.0,3.0,83,0.00,,---,0.00,VWS V14.01,2013-03-25 09:21:00,
2013-03-25 04:24:00,19.0,15.2,30.29,NNW,347,0.0,3.0,85,0.00,,---,0.00,VWS V14.01,2013-03-25 09:24:00,
2013-03-25 04:27:00,19.0,15.2,30.29,NNW,347,2.0,3.0,85,0.00,,---,0.00,VWS V14.01,2013-03-25 09:27:00,
2013-03-25 04:34:00,19.2,15.4,30.30,NNW,347,0.0,1.0,85,0.00,,---,0.00,VWS V14.01,2013-03-25 09:34:00,
2013-03-25 04:37:00,19.2,15.4,30.30,NNW,347,1.0,1.0,85,0.00,,---,0.00,VWS V14.01,2013-03-25 09:37:00,
2013-03-25 04:40:00,19.3,15.8,30.30,NNW,347,1.0,2.0,86,0.00,,---,0.00,VWS V14.01,2013-03-25 09:40:00,
2013-03-25 04:43:00,19.3,15.8,30.30,NNW,347,1.0,2.0,86,0.00,,---,0.00,VWS V14.01,2013-03-25 09:43:00,
2013-03-25 04:46:00,19.4,15.9,30.30,NNW,347,1.0,2.0,86,0.00,,---,0.00,VWS V14.01,2013-03-25 09:46:00,
2013-03-25 04:52:00,19.5,16.0,30.30,NNW,347,1.0,3.0,86,0.00,,---,0.00,VWS V14.01,2013-03-25 09:52:00,
2013-03-25 04:55:00,19.7,16.2,30.31,NNW,347,2.0,3.0,86,0.00,,---,0.00,VWS V14.01,2013-03-25 09:55:00,
2013-03-25 04:58:00,19.8,16.0,30.31,NNW,347,2.0,3.0,85,0.00,,---,0.00,VWS V14.01,2013-03-25 09:58:00,
2013-03-25 05:04:00,19.9,16.1,30.31,NNW,347,1.0,2.0,85,0.00,,---,0.00,VWS V14.01,2013-03-25 10:04:00,
2013-03-25 05:10:00,20.0,16.2,30.31,NNW,347,0.0,2.0,85,0.00,,---,0.00,VWS V14.01,2013-03-25 10:10:00,
2013-03-25 05:13:00,20.0,16.2,30.31,NNW,347,0.0,2.0,85,0.00,,---,0.00,VWS V14.01,2013-03-25 10:13:00,
2013-03-25 05:19:00,20.3,16.8,30.31,NNW,347,0.0,2.0,86,0.00,,---,0.00,VWS V14.01,2013-03-25 10:19:00,
2013-03-25 05:22:00,20.5,17.0,30.31,NNW,347,0.0,2.0,86,0.00,,---,0.00,VWS V14.01,2013-03-25 10:22:00,
2013-03-25 05:25:00,20.4,16.4,30.31,NNW,347,0.0,2.0,84,0.00,,---,0.00,VWS V14.01,2013-03-25 10:25:00,
2013-03-25 05:28:00,20.2,15.9,30.31,NNW,347,0.0,2.0,83,0.00,,---,0.00,VWS V14.01,2013-03-25 10:28:00,
2013-03-25 05:31:00,20.0,15.4,30.31,NNW,347,0.0,0.0,82,0.00,,---,0.00,VWS V14.01,2013-03-25 10:31:00,
2013-03-25 05:37:00,19.7,15.4,30.32,NNW,347,0.0,0.0,83,0.00,,---,0.00,VWS V14.01,2013-03-25 10:37:00,
2013-03-25 05:40:00,19.7,15.7,30.32,NNW,347,0.0,2.0,84,0.00,,---,0.00,VWS V14.01,2013-03-25 10:40:00,
2013-03-25 05:43:00,19.5,15.5,30.32,NNW,347,0.0,2.0,84,0.00,,---,0.00,VWS V14.01,2013-03-25 10:43:00,
2013-03-25 05:46:00,19.3,15.0,30.32,NNW,347,0.0,2.0,83,0.00,,---,0.00,VWS V14.01,2013-03-25 10:46:00,
2013-03-25 05:49:00,19.0,14.7,30.32,NNW,347,0.0,2.0,83,0.00,,---,0.00,VWS V14.01,2013-03-25 10:49:00,
2013-03-25 05:56:00,18.4,14.1,30.32,NNW,347,0.0,2.0,83,0.00,,---,0.00,VWS V14.01,2013-03-25 10:56:00,
2013-03-25 05:59:00,18.1,14.1,30.32,NNW,347,0.0,2.0,84,0.00,,---,0.00,VWS V14.01,2013-03-25 10:59:00,
2013-03-25 06:05:00,17.6,13.6,30.33,NNW,347,0.0,2.0,84,0.00,,---,0.00,VWS V14.01,2013-03-25 11:05:00,
2013-03-25 06:14:00,17.2,13.7,30.33,NNW,347,0.0,2.0,86,0.00,,---,0.00,VWS V14.01,2013-03-25 11:14:00,
2013-03-25 06:20:00,17.8,14.9,30.33,NNW,347,0.0,2.0,88,0.00,,---,0.00,VWS V14.01,2013-03-25 11:20:00,
2013-03-25 06:23:00,18.2,15.5,30.33,NNW,347,1.0,2.0,89,0.00,,---,0.00,VWS V14.01,2013-03-25 11:23:00,
2013-03-25 06:26:00,18.5,15.8,30.33,NNW,347,1.0,2.0,89,0.00,,---,0.00,VWS V14.01,2013-03-25 11:26:00,
2013-03-25 06:32:00,18.4,14.9,30.33,NNW,347,2.0,3.0,86,0.00,,---,0.00,VWS V14.01,2013-03-25 11:32:00,
2013-03-25 06:35:00,18.4,15.2,30.33,NNW,346,1.0,3.0,87,0.00,,---,0.00,VWS V14.01,2013-03-25 11:35:00,
2013-03-25 06:38:00,18.4,14.9,30.33,NNW,346,1.0,3.0,86,0.00,,---,0.00,VWS V14.01,2013-03-25 11:38:00,
2013-03-25 06:41:00,18.4,15.2,30.34,NNW,346,1.0,3.0,87,0.00,,---,0.00,VWS V14.01,2013-03-25 11:41:00,
2013-03-25 06:44:00,18.5,15.3,30.34,NNW,346,1.0,3.0,87,0.00,,---,0.00,VWS V14.01,2013-03-25 11:44:00,
2013-03-25 06:47:00,18.6,15.4,30.34,NNW,346,1.0,3.0,87,0.00,,---,0.00,VWS V14.01,2013-03-25 11:47:00,
2013-03-25 06:53:00,18.7,15.5,30.34,NNW,346,2.0,3.0,87,0.00,,---,0.00,VWS V14.01,2013-03-25 11:53:00,
2013-03-25 06:59:00,18.5,15.0,30.34,NNW,348,2.0,3.0,86,0.00,,---,0.00,VWS V14.01,2013-03-25 11:59:00,
2013-03-25 07:02:00,18.6,15.4,30.34,North,5,1.0,3.0,87,0.00,,---,0.00,VWS V14.01,2013-03-25 12:02:00,
2013-03-25 07:08:00,18.7,15.5,30.34,North,5,1.0,3.0,87,0.00,,---,0.00,VWS V14.01,2013-03-25 12:08:00,
2013-03-25 07:11:00,19.0,16.0,30.35,North,5,1.0,3.0,88,0.00,,---,0.00,VWS V14.01,2013-03-25 12:11:00,
2013-03-25 07:17:00,19.4,16.4,30.35,North,5,1.0,3.0,88,0.00,,---,0.00,VWS V14.01,2013-03-25 12:17:00,
2013-03-25 07:20:00,19.3,15.8,30.35,North,5,0.0,3.0,86,0.00,,---,0.00,VWS V14.01,2013-03-25 12:20:00,
2013-03-25 07:27:00,18.7,14.7,30.35,North,5,0.0,3.0,84,0.00,,---,0.00,VWS V14.01,2013-03-25 12:27:00,
2013-03-25 07:30:00,18.4,14.4,30.35,North,5,0.0,3.0,84,0.00,,---,0.00,VWS V14.01,2013-03-25 12:30:00,
2013-03-25 07:33:00,18.2,14.2,30.36,North,5,0.0,0.0,84,0.00,,---,0.00,VWS V14.01,2013-03-25 12:33:00,
2013-03-25 07:36:00,18.1,14.1,30.36,North,5,0.0,0.0,84,0.00,,---,0.00,VWS V14.01,2013-03-25 12:36:00,
2013-03-25 07:39:00,17.9,14.2,30.36,North,5,0.0,0.0,85,0.00,,---,0.00,VWS V14.01,2013-03-25 12:39:00,
2013-03-25 07:42:00,17.8,14.1,30.36,North,5,0.0,0.0,85,0.00,,---,0.00,VWS V14.01,2013-03-25 12:42:00,
2013-03-25 07:45:00,17.7,14.2,30.36,North,5,2.0,2.0,86,0.00,,---,0.00,VWS V14.01,2013-03-25 12:45:00,
2013-03-25 07:48:00,17.8,14.6,30.37,North,5,0.0,2.0,87,0.00,,---,0.00,VWS V14.01,2013-03-25 12:48:00,
2013-03-25 07:54:00,18.2,15.2,30.37,North,5,1.0,2.0,88,0.00,,---,0.00,VWS V14.01,2013-03-25 12:54:00,
2013-03-25 08:00:00,18.8,15.8,30.37,North,5,0.0,2.0,88,0.00,,---,0.00,VWS V14.01,2013-03-25 13:00:00,
2013-03-25 08:03:00,19.2,16.2,30.38,North,5,0.0,1.0,88,0.00,,---,0.00,VWS V14.01,2013-03-25 13:03:00,
2013-03-25 08:06:00,19.6,16.6,30.38,North,5,0.0,1.0,88,0.00,,---,0.00,VWS V14.01,2013-03-25 13:06:00,
2013-03-25 08:09:00,20.0,17.0,30.38,North,5,0.0,1.0,88,0.00,,---,0.00,VWS V14.01,2013-03-25 13:09:00,
2013-03-25 08:12:00,20.4,17.4,30.38,North,5,0.0,1.0,88,0.00,,---,0.00,VWS V14.01,2013-03-25 13:12:00,
2013-03-25 08:18:00,21.4,18.4,30.38,North,5,0.0,1.0,88,0.00,,---,0.00,VWS V14.01,2013-03-25 13:18:00,
2013-03-25 08:21:00,21.9,18.9,30.38,North,5,0.0,1.0,88,0.00,,---,0.00,VWS V14.01,2013-03-25 13:21:00,
2013-03-25 08:24:00,22.6,19.6,30.38,North,5,0.0,1.0,88,0.00,,---,0.00,VWS V14.01,2013-03-25 13:24:00,
2013-03-25 08:27:00,23.4,20.4,30.38,North,5,0.0,1.0,88,0.00,,---,0.00,VWS V14.01,2013-03-25 13:27:00,
2013-03-25 08:30:00,24.3,21.0,30.39,North,5,0.0,1.0,87,0.00,,---,0.00,VWS V14.01,2013-03-25 13:30:00,
2013-03-25 08:33:00,25.1,21.8,30.39,North,5,0.0,1.0,87,0.00,,---,0.00,VWS V14.01,2013-03-25 13:33:00,
2013-03-25 08:39:00,25.7,21.3,30.39,North,5,0.0,1.0,83,0.00,,---,0.00,VWS V14.01,2013-03-25 13:39:00,
2013-03-25 08:45:00,26.3,21.9,30.39,North,5,0.0,1.0,83,0.00,,---,0.00,VWS V14.01,2013-03-25 13:45:00,
2013-03-25 08:48:00,26.7,22.0,30.39,North,5,0.0,1.0,82,0.00,,---,0.00,VWS V14.01,2013-03-25 13:48:00,
2013-03-25 08:52:00,27.1,22.4,30.40,North,5,0.0,1.0,82,0.00,,---,0.00,VWS V14.01,2013-03-25 13:52:00,
2013-03-25 08:58:00,28.7,23.9,30.40,North,5,0.0,1.0,82,0.00,,---,0.00,VWS V14.01,2013-03-25 13:58:00,
2013-03-25 09:01:00,29.3,23.6,30.40,North,5,0.0,1.0,79,0.00,,---,0.00,VWS V14.01,2013-03-25 14:01:00,
2013-03-25 09:04:00,30.0,24.3,30.40,North,5,0.0,0.0,79,0.00,,---,0.00,VWS V14.01,2013-03-25 14:04:00,
2013-03-25 09:07:00,30.6,24.6,30.40,North,5,0.0,0.0,78,0.00,,---,0.00,VWS V14.01,2013-03-25 14:07:00,
2013-03-25 09:10:00,31.1,25.0,30.40,North,5,0.0,1.0,78,0.00,,---,0.00,VWS V14.01,2013-03-25 14:10:00,
2013-03-25 09:13:00,31.7,25.6,30.40,North,5,1.0,1.0,78,0.00,,---,0.00,VWS V14.01,2013-03-25 14:13:00,
2013-03-25 09:16:00,32.3,25.9,30.40,NNW,345,0.0,2.0,77,0.00,,---,0.00,VWS V14.01,2013-03-25 14:16:00,
2013-03-25 09:19:00,32.9,26.2,30.40,NNW,345,0.0,2.0,76,0.00,,---,0.00,VWS V14.01,2013-03-25 14:19:00,
2013-03-25 09:22:00,33.4,26.0,30.40,NNW,345,0.0,2.0,74,0.00,,---,0.00,VWS V14.01,2013-03-25 14:22:00,
2013-03-25 09:25:00,34.0,26.6,30.41,NNW,345,0.0,2.0,74,0.00,,---,0.00,VWS V14.01,2013-03-25 14:25:00,
2013-03-25 09:31:00,35.2,26.8,30.41,NNW,345,0.0,0.0,71,0.00,,---,0.00,VWS V14.01,2013-03-25 14:31:00,
2013-03-25 09:34:00,35.9,27.4,30.41,NNW,345,1.0,2.0,71,0.00,,---,0.00,VWS V14.01,2013-03-25 14:34:00,
2013-03-25 09:37:00,36.6,26.7,30.41,NNW,345,0.0,2.0,67,0.00,,---,0.00,VWS V14.01,2013-03-25 14:37:00,
2013-03-25 09:40:00,37.2,27.3,30.41,NNW,345,0.0,2.0,67,0.00,,---,0.00,VWS V14.01,2013-03-25 14:40:00,
2013-03-25 09:49:00,38.9,25.4,30.41,North,351,4.0,5.0,58,0.00,,---,0.00,VWS V14.01,2013-03-25 14:49:00,
2013-03-25 09:55:00,39.7,25.7,30.41,North,11,6.0,7.0,57,0.00,,---,0.00,VWS V14.01,2013-03-25 14:55:00,
2013-03-25 09:58:00,39.9,25.1,30.40,NNW,339,6.0,8.0,55,0.00,,---,0.00,VWS V14.01,2013-03-25 14:58:00,
2013-03-25 10:04:00,40.7,25.8,30.41,NNW,345,4.0,8.0,55,0.00,,---,0.00,VWS V14.01,2013-03-25 15:04:00,
2013-03-25 10:10:00,41.6,24.8,30.41,NNW,327,6.0,11.0,51,0.00,,---,0.00,VWS V14.01,2013-03-25 15:10:00,
2013-03-25 10:16:00,42.2,23.9,30.41,NNW,340,7.0,11.0,48,0.00,,---,0.00,VWS V14.01,2013-03-25 15:16:00,
2013-03-25 10:19:00,42.4,24.1,30.41,NNW,347,9.0,11.0,48,0.00,,---,0.00,VWS V14.01,2013-03-25 15:19:00,
2013-03-25 10:23:00,42.4,23.6,30.41,NNW,346,4.0,12.0,47,0.00,,---,0.00,VWS V14.01,2013-03-25 15:23:00,
2013-03-25 10:26:00,42.5,24.7,30.41,NNW,328,8.0,12.0,49,0.00,,---,0.00,VWS V14.01,2013-03-25 15:26:00,
2013-03-25 10:32:00,43.1,23.2,30.41,NE,40,9.0,9.0,45,0.00,,---,0.00,VWS V14.01,2013-03-25 15:32:00,
2013-03-25 10:35:00,43.2,22.2,30.41,NE,55,9.0,11.0,43,0.00,,---,0.00,VWS V14.01,2013-03-25 15:35:00,
2013-03-25 10:38:00,43.4,20.7,30.41,North,10,6.0,12.0,40,0.00,,---,0.00,VWS V14.01,2013-03-25 15:38:00,
2013-03-25 10:44:00,43.8,21.1,30.42,North,360,8.0,13.0,40,0.00,,---,0.00,VWS V14.01,2013-03-25 15:44:00,
2013-03-25 10:50:00,44.0,22.4,30.42,NNE,27,8.0,13.0,42,0.00,,---,0.00,VWS V14.01,2013-03-25 15:50:00,
2013-03-25 10:53:00,43.7,21.0,30.42,NE,42,4.0,13.0,40,0.00,,---,0.00,VWS V14.01,2013-03-25 15:53:00,
2013-03-25 10:56:00,43.8,19.9,30.42,NNE,18,6.0,13.0,38,0.00,,---,0.00,VWS V14.01,2013-03-25 15:56:00,
2013-03-25 10:59:00,43.9,21.7,30.42,NNW,346,7.0,13.0,41,0.00,,---,0.00,VWS V14.01,2013-03-25 15:59:00,
2013-03-25 11:01:00,44.3,22.1,30.42,NNE,21,7.0,13.0,41,0.00,,---,0.00,VWS V14.01,2013-03-25 16:01:00,
2013-03-25 11:05:00,44.9,21.5,30.42,NNW,333,12.0,12.0,39,0.00,,---,0.00,VWS V14.01,2013-03-25 16:05:00,
2013-03-25 11:08:00,45.0,20.9,30.42,North,5,5.0,12.0,38,0.00,,---,0.00,VWS V14.01,2013-03-25 16:08:00,
2013-03-25 11:14:00,45.2,21.1,30.42,NNW,336,8.0,12.0,38,0.00,,---,0.00,VWS V14.01,2013-03-25 16:14:00,
2013-03-25 11:17:00,45.3,21.2,30.42,North,355,4.0,12.0,38,0.00,,---,0.00,VWS V14.01,2013-03-25 16:17:00,
2013-03-25 11:20:00,45.3,21.2,30.42,North,355,0.0,12.0,38,0.00,,---,0.00,VWS V14.01,2013-03-25 16:20:00,
2013-03-25 11:23:00,45.6,21.5,30.42,NW,319,1.0,12.0,38,0.00,,---,0.00,VWS V14.01,2013-03-25 16:23:00,
2013-03-25 11:30:00,46.0,21.8,30.42,North,5,8.0,12.0,38,0.00,,---,0.00,VWS V14.01,2013-03-25 16:30:00,
2013-03-25 11:33:00,45.8,21.6,30.42,NNW,333,1.0,6.0,38,0.00,,---,0.00,VWS V14.01,2013-03-25 16:33:00,
2013-03-25 11:36:00,46.3,22.1,30.42,NNW,331,10.0,11.0,38,0.00,,---,0.00,VWS V14.01,2013-03-25 16:36:00,
2013-03-25 11:42:00,46.8,22.5,30.42,NE,40,5.0,12.0,38,0.00,,---,0.00,VWS V14.01,2013-03-25 16:42:00,
2013-03-25 11:51:00,47.0,22.1,30.42,NW,313,6.0,13.0,37,0.00,,---,0.00,VWS V14.01,2013-03-25 16:51:00,
2013-03-25 11:54:00,47.3,23.0,30.42,NNW,334,8.0,13.0,38,0.00,,---,0.00,VWS V14.01,2013-03-25 16:54:00,
2013-03-25 11:57:00,47.4,22.5,30.42,NNW,328,7.0,13.0,37,0.00,,---,0.00,VWS V14.01,2013-03-25 16:57:00,
2013-03-25 12:00:00,47.6,23.3,30.41,North,5,3.0,13.0,38,0.00,,---,0.00,VWS V14.01,2013-03-25 17:00:00,
2013-03-25 12:06:00,48.0,22.3,30.41,NNW,330,5.0,14.0,36,0.00,,---,0.00,VWS V14.01,2013-03-25 17:06:00,
2013-03-25 12:09:00,47.9,22.9,30.41,NW,315,4.0,14.0,37,0.00,,---,0.00,VWS V14.01,2013-03-25 17:09:00,
2013-03-25 12:12:00,47.8,22.8,30.41,NNE,32,9.0,14.0,37,0.00,,---,0.00,VWS V14.01,2013-03-25 17:12:00,
2013-03-25 12:18:00,47.3,22.4,30.41,North,5,3.0,14.0,37,0.00,,---,0.00,VWS V14.01,2013-03-25 17:18:00,
2013-03-25 12:24:00,48.0,23.6,30.41,NNE,12,8.0,14.0,38,0.00,,---,0.00,VWS V14.01,2013-03-25 17:24:00,
2013-03-25 12:27:00,48.0,21.7,30.41,North,5,3.0,14.0,35,0.00,,---,0.00,VWS V14.01,2013-03-25 17:27:00,
2013-03-25 12:30:00,48.4,22.7,30.41,NNW,329,13.0,15.0,36,0.00,,---,0.00,VWS V14.01,2013-03-25 17:30:00,
2013-03-25 12:33:00,48.8,23.0,30.41,NNE,18,5.0,15.0,36,0.00,,---,0.00,VWS V14.01,2013-03-25 17:33:00,
2013-03-25 12:40:00,49.2,22.7,30.41,NW,309,9.0,15.0,35,0.00,,---,0.00,VWS V14.01,2013-03-25 17:40:00,
2013-03-25 12:43:00,49.6,23.1,30.41,NW,315,8.0,15.0,35,0.00,,---,0.00,VWS V14.01,2013-03-25 17:43:00,
2013-03-25 12:46:00,49.8,22.6,30.41,North,355,7.0,15.0,34,0.00,,---,0.00,VWS V14.01,2013-03-25 17:46:00,
2013-03-25 12:49:00,49.8,21.9,30.41,ENE,57,7.0,15.0,33,0.00,,---,0.00,VWS V14.01,2013-03-25 17:49:00,
2013-03-25 12:52:00,49.4,22.9,30.40,NNW,333,9.0,15.0,35,0.00,,---,0.00,VWS V14.01,2013-03-25 17:52:00,
2013-03-25 12:55:00,49.7,23.2,30.40,NNE,30,7.0,15.0,35,0.00,,---,0.00,VWS V14.01,2013-03-25 17:55:00,
2013-03-25 12:58:00,49.1,23.3,30.40,ENE,57,8.0,15.0,36,0.00,,---,0.00,VWS V14.01,2013-03-25 17:58:00,
2013-03-25 13:04:00,49.8,23.3,30.40,NNW,329,8.0,13.0,35,0.00,,---,0.00,VWS V14.01,2013-03-25 18:04:00,
2013-03-25 13:07:00,50.1,22.8,30.40,NNW,340,9.0,13.0,34,0.00,,---,0.00,VWS V14.01,2013-03-25 18:07:00,
2013-03-25 13:10:00,50.0,22.0,30.40,NW,315,7.0,13.0,33,0.00,,---,0.00,VWS V14.01,2013-03-25 18:10:00,
2013-03-25 13:13:00,49.9,22.0,30.39,NNW,340,4.0,13.0,33,0.00,,---,0.00,VWS V14.01,2013-03-25 18:13:00,
2013-03-25 13:16:00,50.1,22.8,30.39,NNW,329,7.0,13.0,34,0.00,,---,0.00,VWS V14.01,2013-03-25 18:16:00,
2013-03-25 13:19:00,50.5,22.5,30.39,NW,321,9.0,13.0,33,0.00,,---,0.00,VWS V14.01,2013-03-25 18:19:00,
2013-03-25 13:22:00,50.3,21.6,30.39,NNW,344,7.0,13.0,32,0.00,,---,0.00,VWS V14.01,2013-03-25 18:22:00,
2013-03-25 13:25:00,50.2,21.5,30.39,NW,315,9.0,13.0,32,0.00,,---,0.00,VWS V14.01,2013-03-25 18:25:00,
2013-03-25 13:28:00,50.3,21.6,30.39,NNW,343,5.0,13.0,32,0.00,,---,0.00,VWS V14.01,2013-03-25 18:28:00,
2013-03-25 13:31:00,50.5,21.8,30.39,North,360,6.0,13.0,32,0.00,,---,0.00,VWS V14.01,2013-03-25 18:31:00,
2013-03-25 13:37:00,50.3,20.8,30.38,North,5,9.0,14.0,31,0.00,,---,0.00,VWS V14.01,2013-03-25 18:37:00,
2013-03-25 13:40:00,50.1,21.4,30.38,NNE,26,6.0,14.0,32,0.00,,---,0.00,VWS V14.01,2013-03-25 18:40:00,
2013-03-25 13:43:00,50.4,22.4,30.38,North,5,7.0,14.0,33,0.00,,---,0.00,VWS V14.01,2013-03-25 18:43:00,
2013-03-25 13:46:00,50.3,21.6,30.38,NE,41,7.0,14.0,32,0.00,,---,0.00,VWS V14.01,2013-03-25 18:46:00,
2013-03-25 13:50:00,50.2,20.8,30.38,NE,36,8.0,14.0,31,0.00,,---,0.00,VWS V14.01,2013-03-25 18:50:00,
2013-03-25 13:56:00,50.9,20.6,30.37,NW,311,8.0,16.0,30,0.00,,---,0.00,VWS V14.01,2013-03-25 18:56:00,
2013-03-25 13:59:00,51.7,22.8,30.37,North,360,9.0,16.0,32,0.00,,---,0.00,VWS V14.01,2013-03-25 18:59:00,
2013-03-25 14:02:00,51.6,21.2,30.37,North,5,5.0,7.0,30,0.00,,---,0.00,VWS V14.01,2013-03-25 19:02:00,
2013-03-25 14:05:00,51.3,20.9,30.37,North,5,7.0,12.0,30,0.00,,---,0.00,VWS V14.01,2013-03-25 19:05:00,
2013-03-25 14:08:00,51.0,21.5,30.37,North,5,6.0,12.0,31,0.00,,---,0.00,VWS V14.01,2013-03-25 19:08:00,
2013-03-25 14:14:00,51.1,20.0,30.36,NNE,24,7.0,12.0,29,0.00,,---,0.00,VWS V14.01,2013-03-25 19:14:00,
2013-03-25 14:17:00,51.1,20.8,30.36,NNW,328,7.0,12.0,30,0.00,,---,0.00,VWS V14.01,2013-03-25 19:17:00,
2013-03-25 14:20:00,51.7,19.7,30.36,North,360,12.0,13.0,28,0.00,,---,0.00,VWS V14.01,2013-03-25 19:20:00,
2013-03-25 14:23:00,51.8,21.4,30.36,NNW,336,9.0,13.0,30,0.00,,---,0.00,VWS V14.01,2013-03-25 19:23:00,
2013-03-25 14:29:00,52.0,23.1,30.36,NNW,333,7.0,16.0,32,0.00,,---,0.00,VWS V14.01,2013-03-25 19:29:00,
2013-03-25 14:35:00,51.8,22.9,30.36,NW,316,10.0,14.0,32,0.00,,---,0.00,VWS V14.01,2013-03-25 19:35:00,
2013-03-25 14:38:00,51.7,22.1,30.36,NNW,344,11.0,17.0,31,0.00,,---,0.00,VWS V14.01,2013-03-25 19:38:00,
2013-03-25 14:44:00,51.4,22.5,30.36,NW,321,11.0,17.0,32,0.00,,---,0.00,VWS V14.01,2013-03-25 19:44:00,
2013-03-25 14:47:00,51.9,23.0,30.36,NNW,348,7.0,17.0,32,0.00,,---,0.00,VWS V14.01,2013-03-25 19:47:00,
2013-03-25 14:50:00,52.4,24.9,30.36,North,355,5.0,17.0,34,0.00,,---,0.00,VWS V14.01,2013-03-25 19:50:00,
2013-03-25 14:53:00,52.6,23.6,30.36,NNW,339,3.0,17.0,32,0.00,,---,0.00,VWS V14.01,2013-03-25 19:53:00,
2013-03-25 14:59:00,52.4,22.7,30.35,NE,40,9.0,17.0,31,0.00,,---,0.00,VWS V14.01,2013-03-25 19:59:00,
2013-03-25 15:02:00,52.1,23.2,30.35,NNW,347,8.0,13.0,32,0.00,,---,0.00,VWS V14.01,2013-03-25 20:02:00,
2013-03-25 15:05:00,52.4,21.9,30.35,NNE,28,2.0,13.0,30,0.00,,---,0.00,VWS V14.01,2013-03-25 20:05:00,
2013-03-25 15:08:00,52.5,22.8,30.35,NE,36,13.0,16.0,31,0.00,,---,0.00,VWS V14.01,2013-03-25 20:08:00,
2013-03-25 15:11:00,52.3,21.8,30.35,NW,325,10.0,16.0,30,0.00,,---,0.00,VWS V14.01,2013-03-25 20:11:00,
2013-03-25 15:18:00,52.3,20.2,30.34,WNW,296,7.0,16.0,28,0.00,,---,0.00,VWS V14.01,2013-03-25 20:18:00,
2013-03-25 15:21:00,52.3,21.0,30.34,North,5,4.0,16.0,29,0.00,,---,0.00,VWS V14.01,2013-03-25 20:21:00,
2013-03-25 15:24:00,52.5,21.2,30.34,NNW,336,12.0,16.0,29,0.00,,---,0.00,VWS V14.01,2013-03-25 20:24:00,
2013-03-25 15:30:00,52.4,20.3,30.34,North,355,8.0,16.0,28,0.00,,---,0.00,VWS V14.01,2013-03-25 20:30:00,
2013-03-25 15:33:00,52.5,19.5,30.34,NNE,20,15.0,15.0,27,0.00,,---,0.00,VWS V14.01,2013-03-25 20:33:00,
2013-03-25 15:36:00,52.3,20.2,30.34,North,5,6.0,15.0,28,0.00,,---,0.00,VWS V14.01,2013-03-25 20:36:00,
2013-03-25 15:42:00,52.6,20.4,30.34,NNW,331,7.0,15.0,28,0.00,,---,0.00,VWS V14.01,2013-03-25 20:42:00,
2013-03-25 15:45:00,52.5,19.5,30.34,NNE,30,7.0,15.0,27,0.00,,---,0.00,VWS V14.01,2013-03-25 20:45:00,
2013-03-25 15:48:00,52.2,19.2,30.34,NE,56,9.0,15.0,27,0.00,,---,0.00,VWS V14.01,2013-03-25 20:48:00,
2013-03-25 15:51:00,52.2,20.1,30.33,NNW,340,9.0,15.0,28,0.00,,---,0.00,VWS V14.01,2013-03-25 20:51:00,
2013-03-25 15:54:00,52.8,18.9,30.33,NW,316,8.0,15.0,26,0.00,,---,0.00,VWS V14.01,2013-03-25 20:54:00,
2013-03-25 16:00:00,53.1,19.1,30.33,North,360,4.0,15.0,26,0.00,,---,0.00,VWS V14.01,2013-03-25 21:00:00,
2013-03-25 16:01:00,53.2,19.2,30.33,NW,310,6.0,15.0,26,0.00,,---,0.00,VWS V14.01,2013-03-25 21:01:00,
2013-03-25 16:09:00,53.5,19.5,30.33,North,9,9.0,16.0,26,0.00,,---,0.00,VWS V14.01,2013-03-25 21:09:00,
2013-03-25 16:15:00,53.9,18.9,30.33,NNW,335,6.0,16.0,25,0.00,,---,0.00,VWS V14.01,2013-03-25 21:15:00,
2013-03-25 16:18:00,54.0,18.0,30.33,WNW,294,4.0,16.0,24,0.00,,---,0.00,VWS V14.01,2013-03-25 21:18:00,
2013-03-25 16:21:00,53.8,17.9,30.32,NE,51,11.0,16.0,24,0.00,,---,0.00,VWS V14.01,2013-03-25 21:21:00,
2013-03-25 16:24:00,53.5,17.6,30.33,North,355,5.0,16.0,24,0.00,,---,0.00,VWS V14.01,2013-03-25 21:24:00,
2013-03-25 16:30:00,53.4,19.4,30.32,NNW,329,8.0,17.0,26,0.00,,---,0.00,VWS V14.01,2013-03-25 21:30:00,
2013-03-25 16:33:00,53.7,17.8,30.32,North,5,4.0,11.0,24,0.00,,---,0.00,VWS V14.01,2013-03-25 21:33:00,
2013-03-25 16:36:00,54.0,19.0,30.32,NNW,335,11.0,13.0,25,0.00,,---,0.00,VWS V14.01,2013-03-25 21:36:00,
2013-03-25 16:39:00,53.9,18.0,30.32,NW,311,9.0,13.0,24,0.00,,---,0.00,VWS V14.01,2013-03-25 21:39:00,
2013-03-25 16:43:00,53.6,16.7,30.32,North,350,2.0,13.0,23,0.00,,---,0.00,VWS V14.01,2013-03-25 21:43:00,
2013-03-25 16:46:00,53.6,17.7,30.32,NNW,347,4.0,13.0,24,0.00,,---,0.00,VWS V14.01,2013-03-25 21:46:00,
2013-03-25 16:49:00,53.7,16.8,30.32,North,5,9.0,13.0,23,0.00,,---,0.00,VWS V14.01,2013-03-25 21:49:00,
2013-03-25 16:52:00,54.0,18.0,30.32,NNE,21,7.0,13.0,24,0.00,,---,0.00,VWS V14.01,2013-03-25 21:52:00,
2013-03-25 16:55:00,53.8,17.9,30.32,WNW,295,10.0,13.0,24,0.00,,---,0.00,VWS V14.01,2013-03-25 21:55:00,
2013-03-25 16:58:00,53.5,16.6,30.32,NW,320,6.0,13.0,23,0.00,,---,0.00,VWS V14.01,2013-03-25 21:58:00,
2013-03-25 17:04:00,53.7,17.8,30.32,WNW,303,10.0,14.0,24,0.00,,---,0.00,VWS V14.01,2013-03-25 22:04:00,
2013-03-25 17:07:00,53.6,16.7,30.32,WNW,284,8.0,14.0,23,0.00,,---,0.00,VWS V14.01,2013-03-25 22:07:00,
2013-03-25 17:10:00,53.5,16.6,30.32,NNW,329,10.0,14.0,23,0.00,,---,0.00,VWS V14.01,2013-03-25 22:10:00,
2013-03-25 17:13:00,53.4,15.5,30.32,NNW,339,5.0,14.0,22,0.00,,---,0.00,VWS V14.01,2013-03-25 22:13:00,
2013-03-25 17:19:00,53.8,15.9,30.32,NNE,21,8.0,14.0,22,0.00,,---,0.00,VWS V14.01,2013-03-25 22:19:00,
2013-03-25 17:22:00,53.7,16.8,30.32,North,355,9.0,14.0,23,0.00,,---,0.00,VWS V14.01,2013-03-25 22:22:00,
2013-03-25 17:28:00,53.3,16.5,30.32,NNW,341,8.0,14.0,23,0.00,,---,0.00,VWS V14.01,2013-03-25 22:28:00,
2013-03-25 17:34:00,53.2,16.4,30.32,NW,318,13.0,16.0,23,0.00,,---,0.00,VWS V14.01,2013-03-25 22:34:00,
2013-03-25 17:37:00,53.3,16.5,30.32,NW,324,6.0,16.0,23,0.00,,---,0.00,VWS V14.01,2013-03-25 22:37:00,
2013-03-25 17:43:00,53.4,16.5,30.32,NNE,15,5.0,16.0,23,0.00,,---,0.00,VWS V14.01,2013-03-25 22:43:00,
2013-03-25 17:49:00,53.6,16.7,30.32,North,360,8.0,16.0,23,0.00,,---,0.00,VWS V14.01,2013-03-25 22:49:00,
2013-03-25 17:52:00,53.7,16.8,30.32,North,9,1.0,16.0,23,0.00,,---,0.00,VWS V14.01,2013-03-25 22:52:00,
2013-03-25 17:58:00,53.7,17.8,30.32,North,360,4.0,16.0,24,0.00,,---,0.00,VWS V14.01,2013-03-25 22:58:00,
2013-03-25 18:05:00,53.7,16.8,30.32,NW,313,4.0,9.0,23,0.00,,---,0.00,VWS V14.01,2013-03-25 23:05:00,
2013-03-25 18:08:00,53.6,15.7,30.32,NW,317,13.0,13.0,22,0.00,,---,0.00,VWS V14.01,2013-03-25 23:08:00,
2013-03-25 18:11:00,53.4,15.5,30.33,NW,324,6.0,13.0,22,0.00,,---,0.00,VWS V14.01,2013-03-25 23:11:00,
2013-03-25 18:14:00,53.2,14.3,30.33,NNE,17,4.0,13.0,21,0.00,,---,0.00,VWS V14.01,2013-03-25 23:14:00,
2013-03-25 18:17:00,52.8,15.0,30.33,NNE,30,2.0,13.0,22,0.00,,---,0.00,VWS V14.01,2013-03-25 23:17:00,
2013-03-25 18:20:00,52.9,15.1,30.33,NNE,15,5.0,13.0,22,0.00,,---,0.00,VWS V14.01,2013-03-25 23:20:00,
2013-03-25 18:23:00,52.9,15.1,30.33,NNW,335,8.0,13.0,22,0.00,,---,0.00,VWS V14.01,2013-03-25 23:23:00,
2013-03-25 18:29:00,52.8,15.0,30.33,North,360,8.0,13.0,22,0.00,,---,0.00,VWS V14.01,2013-03-25 23:29:00,
2013-03-25 18:35:00,52.5,15.8,30.33,WNW,300,9.0,15.0,23,0.00,,---,0.00,VWS V14.01,2013-03-25 23:35:00,
2013-03-25 18:38:00,52.2,15.5,30.33,North,360,2.0,15.0,23,0.00,,---,0.00,VWS V14.01,2013-03-25 23:38:00,
2013-03-25 18:41:00,52.2,14.5,30.33,North,360,5.0,15.0,22,0.00,,---,0.00,VWS V14.01,2013-03-25 23:41:00,
2013-03-25 18:44:00,52.4,15.7,30.33,North,9,6.0,15.0,23,0.00,,---,0.00,VWS V14.01,2013-03-25 23:44:00,
2013-03-25 18:47:00,52.4,15.7,30.33,North,355,7.0,15.0,23,0.00,,---,0.00,VWS V14.01,2013-03-25 23:47:00,
2013-03-25 18:50:00,52.3,15.6,30.33,NNW,346,4.0,15.0,23,0.00,,---,0.00,VWS V14.01,2013-03-25 23:50:00,
2013-03-25 18:53:00,52.2,15.5,30.33,NNE,23,6.0,15.0,23,0.00,,---,0.00,VWS V14.01,2013-03-25 23:53:00,
2013-03-25 18:59:00,51.7,15.1,30.34,North,5,8.0,15.0,23,0.00,,---,0.00,VWS V14.01,2013-03-25 23:59:00,
2013-03-25 19:05:00,51.2,15.7,30.34,NNW,342,5.0,11.0,24,0.00,,---,0.00,VWS V14.01,2013-03-26 00:05:00,
2013-03-25 19:08:00,51.2,15.7,30.34,NNW,340,6.0,11.0,24,0.00,,---,0.00,VWS V14.01,2013-03-26 00:08:00,
2013-03-25 19:11:00,51.1,14.6,30.34,NNW,331,7.0,11.0,23,0.00,,---,0.00,VWS V14.01,2013-03-26 00:11:00,
2013-03-25 19:14:00,50.9,14.4,30.34,NNE,13,7.0,11.0,23,0.00,,---,0.00,VWS V14.01,2013-03-26 00:14:00,
2013-03-25 19:17:00,50.8,16.3,30.34,NNW,330,5.0,11.0,25,0.00,,---,0.00,VWS V14.01,2013-03-26 00:17:00,
2013-03-25 19:20:00,50.6,15.2,30.34,North,5,4.0,11.0,24,0.00,,---,0.00,VWS V14.01,2013-03-26 00:20:00,
2013-03-25 19:30:00,50.2,15.8,30.35,North,360,6.0,11.0,25,0.00,,---,0.00,VWS V14.01,2013-03-26 00:30:00,
2013-03-25 19:31:00,50.1,15.7,30.35,North,5,3.0,11.0,25,0.00,,---,0.00,VWS V14.01,2013-03-26 00:31:00,
2013-03-25 19:36:00,49.7,15.3,30.35,North,355,5.0,10.0,25,0.00,,---,0.00,VWS V14.01,2013-03-26 00:36:00,
2013-03-25 19:39:00,49.4,15.1,30.35,NNW,331,4.0,10.0,25,0.00,,---,0.00,VWS V14.01,2013-03-26 00:39:00,
2013-03-25 19:42:00,49.1,15.7,30.35,NNW,347,3.0,10.0,26,0.00,,---,0.00,VWS V14.01,2013-03-26 00:42:00,
2013-03-25 19:45:00,48.8,15.4,30.36,NW,323,3.0,10.0,26,0.00,,---,0.00,VWS V14.01,2013-03-26 00:45:00,
2013-03-25 19:48:00,48.5,15.2,30.36,North,355,2.0,10.0,26,0.00,,---,0.00,VWS V14.01,2013-03-26 00:48:00,
2013-03-25 19:54:00,47.8,15.5,30.36,NNE,13,3.0,10.0,27,0.00,,---,0.00,VWS V14.01,2013-03-26 00:54:00,
2013-03-25 20:00:00,47.3,15.9,30.36,NNE,17,3.0,10.0,28,0.00,,---,0.00,VWS V14.01,2013-03-26 01:00:00,
2013-03-25 20:06:00,46.9,16.3,30.36,North,360,3.0,6.0,29,0.00,,---,0.00,VWS V14.01,2013-03-26 01:06:00,
2013-03-25 20:09:00,46.7,16.1,30.36,North,11,2.0,6.0,29,0.00,,---,0.00,VWS V14.01,2013-03-26 01:09:00,
2013-03-25 20:12:00,46.5,16.0,30.36,North,11,2.0,6.0,29,0.00,,---,0.00,VWS V14.01,2013-03-26 01:12:00,
2013-03-25 20:18:00,46.3,16.6,30.37,NNE,32,3.0,6.0,30,0.00,,---,0.00,VWS V14.01,2013-03-26 01:18:00,
2013-03-25 20:24:00,45.6,16.0,30.37,North,9,1.0,6.0,30,0.00,,---,0.00,VWS V14.01,2013-03-26 01:24:00,
2013-03-25 20:27:00,45.3,15.7,30.37,North,9,0.0,6.0,30,0.00,,---,0.00,VWS V14.01,2013-03-26 01:27:00,
2013-03-25 20:30:00,45.0,16.2,30.37,North,9,0.0,6.0,31,0.00,,---,0.00,VWS V14.01,2013-03-26 01:30:00,
2013-03-25 20:36:00,44.6,15.9,30.38,North,9,0.0,0.0,31,0.00,,---,0.00,VWS V14.01,2013-03-26 01:36:00,
2013-03-25 20:39:00,44.4,16.4,30.38,North,9,0.0,0.0,32,0.00,,---,0.00,VWS V14.01,2013-03-26 01:39:00,
2013-03-25 20:45:00,43.9,16.7,30.38,North,9,0.0,0.0,33,0.00,,---,0.00,VWS V14.01,2013-03-26 01:45:00,
2013-03-25 20:51:00,43.4,16.2,30.38,North,9,0.0,1.0,33,0.00,,---,0.00,VWS V14.01,2013-03-26 01:51:00,
2013-03-25 20:58:00,42.9,15.8,30.38,North,9,0.0,1.0,33,0.00,,---,0.00,VWS V14.01,2013-03-26 01:58:00,
2013-03-25 21:04:00,42.5,16.1,30.38,North,9,0.0,0.0,34,0.00,,---,0.00,VWS V14.01,2013-03-26 02:04:00,
2013-03-25 21:07:00,42.3,15.9,30.38,North,9,0.0,0.0,34,0.00,,---,0.00,VWS V14.01,2013-03-26 02:07:00,
2013-03-25 21:10:00,42.1,17.1,30.38,North,9,0.0,0.0,36,0.00,,---,0.00,VWS V14.01,2013-03-26 02:10:00,
2013-03-25 21:19:00,40.7,15.8,30.38,North,9,0.0,0.0,36,0.00,,---,0.00,VWS V14.01,2013-03-26 02:19:00,
2013-03-25 21:22:00,40.2,16.0,30.39,North,9,0.0,0.0,37,0.00,,---,0.00,VWS V14.01,2013-03-26 02:22:00,
2013-03-25 21:28:00,39.3,15.8,30.39,North,9,0.0,0.0,38,0.00,,---,0.00,VWS V14.01,2013-03-26 02:28:00,
2013-03-25 21:31:00,38.9,15.5,30.39,North,9,0.0,0.0,38,0.00,,---,0.00,VWS V14.01,2013-03-26 02:31:00,
2013-03-25 21:34:00,38.4,15.0,30.39,North,9,0.0,0.0,38,0.00,,---,0.00,VWS V14.01,2013-03-26 02:34:00,
2013-03-25 21:37:00,37.8,15.7,30.40,North,9,0.0,0.0,40,0.00,,---,0.00,VWS V14.01,2013-03-26 02:37:00,
2013-03-25 21:40:00,37.2,15.7,30.40,North,9,0.0,0.0,41,0.00,,---,0.00,VWS V14.01,2013-03-26 02:40:00,
2013-03-25 21:43:00,36.6,15.7,30.40,North,9,0.0,0.0,42,0.00,,---,0.00,VWS V14.01,2013-03-26 02:43:00,
2013-03-25 21:46:00,36.0,14.0,30.40,North,9,0.0,0.0,40,0.00,,---,0.00,VWS V14.01,2013-03-26 02:46:00,
2013-03-25 21:52:00,34.5,15.4,30.40,North,9,0.0,0.0,45,0.00,,---,0.00,VWS V14.01,2013-03-26 02:52:00,
2013-03-25 21:55:00,33.7,15.1,30.40,North,9,0.0,0.0,46,0.00,,---,0.00,VWS V14.01,2013-03-26 02:55:00,
2013-03-25 21:58:00,33.1,16.5,30.40,North,9,0.0,0.0,50,0.00,,---,0.00,VWS V14.01,2013-03-26 02:58:00,
2013-03-25 22:01:00,32.6,16.9,30.40,North,9,0.0,0.0,52,0.00,,---,0.00,VWS V14.01,2013-03-26 03:01:00,
2013-03-25 22:04:00,32.1,17.3,30.41,North,9,0.0,0.0,54,0.00,,---,0.00,VWS V14.01,2013-03-26 03:04:00,
2013-03-25 22:07:00,31.6,16.9,30.41,North,9,0.0,0.0,54,0.00,,---,0.00,VWS V14.01,2013-03-26 03:07:00,
2013-03-25 22:10:00,31.0,16.3,30.41,North,9,0.0,0.0,54,0.00,,---,0.00,VWS V14.01,2013-03-26 03:10:00,
2013-03-25 22:16:00,30.2,16.4,30.41,North,9,0.0,0.0,56,0.00,,---,0.00,VWS V14.01,2013-03-26 03:16:00,
2013-03-25 22:19:00,29.8,16.4,30.41,North,9,0.0,0.0,57,0.00,,---,0.00,VWS V14.01,2013-03-26 03:19:00,
2013-03-25 22:23:00,29.6,16.2,30.41,North,9,0.0,0.0,57,0.00,,---,0.00,VWS V14.01,2013-03-26 03:23:00,
2013-03-25 22:26:00,29.3,16.8,30.42,North,9,0.0,0.0,59,0.00,,---,0.00,VWS V14.01,2013-03-26 03:26:00,
2013-03-25 22:29:00,29.0,16.9,30.42,North,9,1.0,1.0,60,0.00,,---,0.00,VWS V14.01,2013-03-26 03:29:00,
2013-03-25 22:32:00,28.8,16.7,30.42,North,9,1.0,1.0,60,0.00,,---,0.00,VWS V14.01,2013-03-26 03:32:00,
2013-03-25 22:35:00,28.7,17.0,30.42,North,9,0.0,1.0,61,0.00,,---,0.00,VWS V14.01,2013-03-26 03:35:00,
2013-03-25 22:38:00,28.7,17.0,30.42,North,9,0.0,1.0,61,0.00,,---,0.00,VWS V14.01,2013-03-26 03:38:00,
2013-03-25 22:44:00,28.6,16.5,30.42,North,9,0.0,1.0,60,0.00,,---,0.00,VWS V14.01,2013-03-26 03:44:00,
2013-03-25 22:47:00,28.5,16.4,30.42,North,9,0.0,1.0,60,0.00,,---,0.00,VWS V14.01,2013-03-26 03:47:00,
2013-03-25 22:50:00,28.4,16.3,30.43,North,9,0.0,1.0,60,0.00,,---,0.00,VWS V14.01,2013-03-26 03:50:00,
2013-03-25 22:56:00,28.1,17.1,30.43,North,9,0.0,2.0,63,0.00,,---,0.00,VWS V14.01,2013-03-26 03:56:00,
2013-03-25 23:01:00,27.6,17.0,30.43,North,9,0.0,2.0,64,0.00,,---,0.00,VWS V14.01,2013-03-26 04:01:00,
2013-03-25 23:05:00,27.4,17.2,30.43,North,9,0.0,0.0,65,0.00,,---,0.00,VWS V14.01,2013-03-26 04:05:00,
2013-03-25 23:14:00,27.2,17.0,30.43,North,9,0.0,1.0,65,0.00,,---,0.00,VWS V14.01,2013-03-26 04:14:00,
2013-03-25 23:17:00,27.5,17.3,30.43,North,9,0.0,1.0,65,0.00,,---,0.00,VWS V14.01,2013-03-26 04:17:00,
2013-03-25 23:20:00,27.8,17.2,30.43,North,9,0.0,1.0,64,0.00,,---,0.00,VWS V14.01,2013-03-26 04:20:00,
2013-03-25 23:23:00,28.0,17.4,30.43,North,9,0.0,1.0,64,0.00,,---,0.00,VWS V14.01,2013-03-26 04:23:00,
2013-03-25 23:29:00,28.2,16.9,30.43,North,9,0.0,1.0,62,0.00,,---,0.00,VWS V14.01,2013-03-26 04:29:00,
2013-03-25 23:31:00,28.2,16.1,30.43,North,9,0.0,1.0,60,0.00,,---,0.00,VWS V14.01,2013-03-26 04:31:00,
2013-03-25 23:32:00,28.1,16.0,30.43,North,9,0.0,0.0,60,0.00,,---,0.00,VWS V14.01,2013-03-26 04:32:00,
2013-03-25 23:38:00,27.6,16.7,30.43,North,9,0.0,2.0,63,0.00,,---,0.00,VWS V14.01,2013-03-26 04:38:00,
2013-03-25 23:45:00,27.0,16.1,30.43,North,9,0.0,2.0,63,0.00,,---,0.00,VWS V14.01,2013-03-26 04:45:00,
2013-03-25 23:48:00,26.7,16.2,30.43,North,9,0.0,2.0,64,0.00,,---,0.00,VWS V14.01,2013-03-26 04:48:00,
2013-03-25 23:51:00,26.5,16.3,30.43,North,9,0.0,2.0,65,0.00,,---,0.00,VWS V14.01,2013-03-26 04:51:00,
2013-03-25 23:54:00,26.5,16.3,30.43,North,9,0.0,2.0,65,0.00,,---,0.00,VWS V14.01,2013-03-26 04:54:00,
2013-03-25 23:57:00,26.4,15.9,30.43,North,9,0.0,2.0,64,0.00,,---,0.00,VWS V14.01,2013-03-26 04:57:00,